Terminal Aerodrome Forecast
Issued by NWS Wilmington, OH

Current Version | Previous Version | Graphics & Text | Print | Product List | Glossary On
Versions: 1 2 3 4 5 6 7 8 9 10 11 12 13 14 15 16 17 18 19 20 21 22 23 24 25 26 27 28 29 30 31 32
000
FTUS41 KILN 220500
TAFCVG
TAF
KCVG 220537Z 2206/2312 07003KT P6SM FEW060
     FM220800 00000KT 5SM BR SCT060
     FM221300 20006KT P6SM SCT040
     FM230000 VRB03KT P6SM SCT250
     FM230700 23005KT P6SM BKN250=

USA.gov is the U.S. government's official web portal to all federal, state and local government web resources and services.